Time;durP1;ratioP1;P1;durP2;ratioP2;P2;SDS_P1;SDS_P2;PMS_P1;PMS_P2;Temp;Humidity;BMP_temperature;BMP_pressure;BME280_temperature;BME280_humidity;BME280_pressure;Samples;Min_cycle;Max_cycle;Signal;HPM_P1;HPM_P2
2021/10/16 00:02:10;;;;;;;17.93;12.70;;;;;;;11.02;69.42;96969.53;5073070;28;20658;-67
2021/10/16 00:04:36;;;;;;;17.87;12.70;;;;;;;11.13;68.93;96971.84;5072621;28;20525;-69
2021/10/16 00:07:01;;;;;;;16.87;12.20;;;;;;;11.02;69.28;96973.00;5067355;28;20184;-67
2021/10/16 00:09:27;;;;;;;16.80;12.63;;;;;;;10.89;69.93;96964.78;5072560;28;20174;-68
2021/10/16 00:11:52;;;;;;;18.00;13.40;;;;;;;10.96;69.61;96975.44;5072958;28;20186;-67
2021/10/16 00:14:18;;;;;;;15.07;12.70;;;;;;;11.06;69.23;96979.56;5073081;28;20259;-67
2021/10/16 00:16:44;;;;;;;18.93;12.97;;;;;;;11.12;68.76;96972.84;5072985;28;20236;-67
2021/10/16 00:19:09;;;;;;;23.50;13.27;;;;;;;10.93;69.53;96973.13;5072320;28;20190;-67
2021/10/16 00:21:36;;;;;;;15.70;12.30;;;;;;;10.80;70.20;96974.41;5066846;28;20182;-67
2021/10/16 00:24:02;;;;;;;16.10;13.10;;;;;;;10.92;70.19;96972.31;5070940;28;20218;-67
2021/10/16 00:26:28;;;;;;;18.60;12.90;;;;;;;11.02;69.84;96982.66;5072832;28;20409;-67
2021/10/16 00:28:53;;;;;;;18.00;12.67;;;;;;;11.20;69.02;96985.16;5072554;28;20456;-68
2021/10/16 00:31:19;;;;;;;21.57;13.00;;;;;;;11.25;68.60;96985.50;5071993;28;20174;-67
2021/10/16 00:33:44;;;;;;;21.17;13.30;;;;;;;11.30;68.60;96979.75;5071965;28;20191;-67
2021/10/16 00:36:10;;;;;;;19.20;13.03;;;;;;;11.33;68.45;96982.88;5061923;28;20240;-68
2021/10/16 00:38:35;;;;;;;21.63;13.97;;;;;;;11.30;68.50;96985.81;5064692;28;20175;-67
2021/10/16 00:41:01;;;;;;;20.47;14.67;;;;;;;11.33;68.38;96979.44;5072124;28;20185;-66
2021/10/16 00:43:27;;;;;;;17.13;13.50;;;;;;;11.33;68.23;96976.81;5072225;28;20257;-68
2021/10/16 00:45:53;;;;;;;17.43;13.57;;;;;;;11.40;68.18;96975.16;5063672;28;20413;-67
2021/10/16 00:48:18;;;;;;;19.70;13.43;;;;;;;11.38;68.37;96977.13;5071574;28;20167;-68
2021/10/16 00:50:44;;;;;;;17.27;13.63;;;;;;;11.40;68.24;96977.78;5071779;28;20265;-67
2021/10/16 00:53:12;;;;;;;19.57;14.03;;;;;;;11.36;68.68;96974.69;5070590;28;20186;-68
2021/10/16 00:55:39;;;;;;;16.63;12.60;;;;;;;11.41;68.37;96984.69;5072047;28;20178;-67
2021/10/16 00:58:04;;;;;;;20.20;13.80;;;;;;;11.46;68.44;96974.53;5071331;28;20421;-67
2021/10/16 01:00:30;;;;;;;18.43;13.40;;;;;;;11.49;68.13;96971.56;5062286;28;20413;-68
2021/10/16 01:02:56;;;;;;;18.60;13.20;;;;;;;11.50;67.97;96975.81;5071414;28;20521;-68
2021/10/16 01:05:21;;;;;;;25.77;14.63;;;;;;;11.50;68.28;96967.97;5071408;28;20178;-69
2021/10/16 01:07:47;;;;;;;19.13;13.67;;;;;;;11.57;68.24;96964.69;5066225;28;20178;-65
2021/10/16 01:10:13;;;;;;;16.63;12.60;;;;;;;11.62;67.90;96967.63;5071715;28;20210;-67
2021/10/16 01:12:39;;;;;;;19.73;13.50;;;;;;;11.63;68.11;96966.63;5071818;28;20170;-68
2021/10/16 01:15:10;;;;;;;17.57;13.00;;;;;;;11.70;68.17;96967.63;5071728;28;21000;-68
2021/10/16 01:17:36;;;;;;;18.57;13.40;;;;;;;11.71;67.93;96965.81;5060099;28;20420;-67
2021/10/16 01:20:11;;;;;;;16.10;12.70;;;;;;;11.76;68.08;96969.59;5071101;28;20482;-66
2021/10/16 01:22:38;;;;;;;18.03;12.70;;;;;;;11.81;67.82;96967.31;5064225;28;20408;-66
2021/10/16 01:25:07;;;;;;;18.90;13.93;;;;;;;11.84;67.62;96961.69;5063872;28;20461;-66
2021/10/16 01:27:33;;;;;;;18.70;12.57;;;;;;;11.79;67.73;96961.38;5073893;28;20475;-66
2021/10/16 01:29:58;;;;;;;19.00;13.10;;;;;;;11.87;67.72;96957.09;5073828;28;20558;-67
2021/10/16 01:32:24;;;;;;;15.60;12.60;;;;;;;11.96;67.50;96958.75;5073576;28;20458;-67
2021/10/16 01:34:50;;;;;;;19.50;13.13;;;;;;;11.98;67.40;96956.78;5071680;28;20217;-66
2021/10/16 01:37:16;;;;;;;16.07;12.00;;;;;;;12.03;67.10;96958.94;5065824;28;20669;-67
2021/10/16 01:39:42;;;;;;;18.13;13.37;;;;;;;12.00;66.97;96956.63;5071179;28;20217;-68
2021/10/16 01:42:14;;;;;;;13.17;10.53;;;;;;;12.02;66.92;96955.47;5064080;28;20459;-67
2021/10/16 01:44:41;;;;;;;14.63;11.73;;;;;;;12.03;66.87;96956.31;5074009;28;20210;-68
2021/10/16 01:47:06;;;;;;;19.87;11.43;;;;;;;11.98;66.97;96951.53;5074770;28;20424;-63
2021/10/16 01:49:32;;;;;;;15.67;12.00;;;;;;;11.98;66.59;96941.03;5059930;28;20425;-68
2021/10/16 01:51:57;;;;;;;17.30;12.30;;;;;;;12.01;66.68;96947.78;5069301;28;20186;-68
2021/10/16 01:54:23;;;;;;;16.97;12.00;;;;;;;12.05;66.60;96944.63;5062767;28;20205;-67
2021/10/16 01:56:48;;;;;;;16.77;12.37;;;;;;;11.99;66.76;96942.66;5070794;28;20182;-64
2021/10/16 01:59:22;;;;;;;16.03;11.97;;;;;;;12.07;66.58;96950.53;5070591;28;20250;-67
2021/10/16 02:01:48;;;;;;;15.73;12.17;;;;;;;12.17;66.79;96946.91;5062660;28;20261;-67
2021/10/16 02:04:14;;;;;;;13.43;10.87;;;;;;;12.18;66.18;96938.03;5070885;28;21069;-67
2021/10/16 02:06:41;;;;;;;17.37;11.67;;;;;;;12.15;66.44;96949.72;5067899;28;20190;-67
2021/10/16 02:09:07;;;;;;;17.00;12.90;;;;;;;12.17;66.60;96949.53;5068573;28;20428;-68
2021/10/16 02:11:32;;;;;;;16.87;13.40;;;;;;;12.13;66.72;96944.59;5070843;28;20793;-67
2021/10/16 02:13:59;;;;;;;17.90;14.47;;;;;;;12.01;67.32;96942.50;5070403;28;20444;-67
2021/10/16 02:16:24;;;;;;;22.60;14.23;;;;;;;12.05;67.64;96944.63;5068611;28;20186;-67
2021/10/16 02:18:50;;;;;;;19.83;14.37;;;;;;;11.96;67.88;96943.78;5067390;28;20421;-67
2021/10/16 02:21:16;;;;;;;22.00;14.50;;;;;;;11.94;68.05;96942.34;5067641;28;20696;-67
2021/10/16 02:23:41;;;;;;;20.63;14.43;;;;;;;12.09;67.80;96940.69;5066103;28;20202;-67
2021/10/16 02:26:07;;;;;;;24.63;16.10;;;;;;;12.10;67.73;96939.69;5070340;28;20281;-67
2021/10/16 02:28:33;;;;;;;22.87;15.03;;;;;;;12.12;67.71;96944.78;5069973;28;20171;-68
2021/10/16 02:30:58;;;;;;;21.67;15.70;;;;;;;12.14;67.58;96943.63;5070107;28;20210;-67
2021/10/16 02:33:24;;;;;;;19.83;14.03;;;;;;;12.24;67.43;96935.56;5070317;28;20189;-68
2021/10/16 02:35:49;;;;;;;22.13;15.57;;;;;;;12.21;67.47;96941.13;5070134;28;20274;-66
2021/10/16 02:38:15;;;;;;;25.80;17.00;;;;;;;12.22;67.80;96939.34;5065148;28;20205;-67
2021/10/16 02:40:40;;;;;;;27.57;16.70;;;;;;;12.24;67.58;96942.59;5063240;28;20272;-67
2021/10/16 02:43:06;;;;;;;26.07;16.67;;;;;;;12.36;67.38;96943.06;5069705;28;20179;-67
2021/10/16 02:45:32;;;;;;;24.50;17.50;;;;;;;12.41;66.96;96944.19;5068218;28;20633;-67
2021/10/16 02:47:57;;;;;;;24.83;15.80;;;;;;;12.10;67.79;96939.69;5073615;28;20206;-67
2021/10/16 02:50:23;;;;;;;25.57;17.37;;;;;;;12.25;67.88;96949.50;5074162;28;20175;-67
2021/10/16 02:52:48;;;;;;;22.77;16.83;;;;;;;12.36;67.28;96948.31;5074074;28;20175;-66
2021/10/16 02:55:16;;;;;;;23.57;16.97;;;;;;;12.33;67.19;96944.22;5057525;28;20193;-67
2021/10/16 02:57:42;;;;;;;28.67;19.27;;;;;;;12.28;67.60;96951.78;5073411;28;20490;-66
2021/10/16 03:00:08;;;;;;;28.43;18.23;;;;;;;12.18;67.92;96951.16;5073856;28;20578;-67
2021/10/16 03:02:34;;;;;;;26.90;18.30;;;;;;;12.28;67.66;96946.53;5074114;28;20421;-67
2021/10/16 03:05:00;;;;;;;28.70;18.03;;;;;;;12.33;67.66;96949.50;5073795;28;20464;-67
2021/10/16 03:07:25;;;;;;;44.33;21.73;;;;;;;12.31;67.88;96945.38;5067749;28;20476;-67
2021/10/16 03:09:51;;;;;;;38.40;20.60;;;;;;;11.95;69.25;96951.84;5062469;28;20183;-66
2021/10/16 03:12:16;;;;;;;33.63;20.77;;;;;;;12.05;69.06;96949.88;5073359;28;20527;-67
2021/10/16 03:14:42;;;;;;;45.93;22.33;;;;;;;12.08;69.20;96948.72;5073726;28;20256;-67
2021/10/16 03:17:08;;;;;;;45.90;24.57;;;;;;;11.93;69.81;96951.19;5066705;28;20306;-67
2021/10/16 03:19:33;;;;;;;44.40;23.97;;;;;;;11.42;72.23;96946.97;5073448;28;20820;-67
2021/10/16 03:21:59;;;;;;;53.57;25.13;;;;;;;11.66;70.99;96956.63;5066174;28;20835;-67
2021/10/16 03:24:25;;;;;;;48.70;22.60;;;;;;;11.95;70.24;96954.47;5073437;28;20685;-67
2021/10/16 03:26:51;;;;;;;44.33;23.10;;;;;;;12.13;69.36;96956.94;5073276;28;20194;-67
2021/10/16 03:29:17;;;;;;;52.83;23.73;;;;;;;11.96;69.68;96954.31;5073150;28;20448;-67
2021/10/16 03:31:42;;;;;;;48.70;24.70;;;;;;;11.74;70.58;96955.00;5073294;28;20456;-66
2021/10/16 03:34:08;;;;;;;50.20;22.47;;;;;;;11.60;71.48;96951.22;5074120;28;20198;-66
2021/10/16 03:36:33;;;;;;;48.67;21.80;;;;;;;11.20;72.61;96949.25;5072758;28;20186;-66
2021/10/16 03:38:59;;;;;;;45.33;21.40;;;;;;;10.81;73.84;96957.72;5069254;28;20175;-66
2021/10/16 03:41:25;;;;;;;49.67;21.20;;;;;;;11.15;73.02;96954.16;5072810;28;20198;-66
2021/10/16 03:43:50;;;;;;;52.67;21.40;;;;;;;11.41;72.10;96950.56;5073026;28;20297;-66
2021/10/16 03:46:16;;;;;;;55.53;22.50;;;;;;;11.60;71.15;96954.69;5073039;28;20423;-68
2021/10/16 03:48:42;;;;;;;47.97;22.57;;;;;;;11.70;70.99;96951.06;5068295;28;20193;-67
2021/10/16 03:51:07;;;;;;;60.33;24.17;;;;;;;11.63;71.17;96943.00;5060987;28;20635;-67
2021/10/16 03:53:33;;;;;;;56.90;22.40;;;;;;;11.82;70.89;96944.47;5067378;28;20216;-68
2021/10/16 03:55:58;;;;;;;63.17;25.90;;;;;;;11.79;70.94;96943.00;5072265;28;20676;-67
2021/10/16 03:58:24;;;;;;;56.80;23.80;;;;;;;11.65;71.40;96946.31;5066582;28;20315;-68
2021/10/16 04:00:50;;;;;;;70.93;23.70;;;;;;;11.88;70.83;96940.34;5056094;28;20179;-67
2021/10/16 04:03:16;;;;;;;68.23;24.10;;;;;;;11.77;71.34;96939.72;5052467;28;20228;-67
2021/10/16 04:05:41;;;;;;;66.87;24.73;;;;;;;11.88;70.91;96950.88;5053205;28;20418;-68
2021/10/16 04:08:08;;;;;;;73.30;25.40;;;;;;;11.81;71.12;96951.53;5052617;28;20891;-68
2021/10/16 04:10:35;;;;;;;81.03;26.10;;;;;;;11.71;72.04;96940.41;5051767;28;20596;-65
2021/10/16 04:13:01;;;;;;;66.07;24.73;;;;;;;11.60;72.54;96948.59;5052456;28;20555;-67
2021/10/16 04:15:26;;;;;;;64.17;23.97;;;;;;;11.93;71.25;96945.94;5052838;28;20470;-66
2021/10/16 04:17:52;;;;;;;69.33;26.03;;;;;;;11.80;71.50;96944.66;5052100;28;20422;-67
2021/10/16 04:20:18;;;;;;;58.67;24.20;;;;;;;11.65;72.39;96956.81;5052522;28;20190;-66
2021/10/16 04:22:43;;;;;;;58.90;23.33;;;;;;;11.86;71.76;96952.84;5059774;28;20206;-66
2021/10/16 04:25:09;;;;;;;67.40;24.63;;;;;;;11.67;71.95;96954.84;5051907;28;20214;-67
2021/10/16 04:27:34;;;;;;;71.20;25.53;;;;;;;11.68;72.19;96957.28;5052195;28;20210;-67
2021/10/16 04:30:00;;;;;;;62.67;24.73;;;;;;;11.72;72.19;96957.78;5045641;28;20855;-67
2021/10/16 04:32:26;;;;;;;82.90;25.23;;;;;;;11.75;72.29;96967.13;5065552;28;20182;-66
2021/10/16 04:34:51;;;;;;;58.33;24.07;;;;;;;11.83;71.86;96954.81;5054557;28;20291;-67
2021/10/16 04:37:17;;;;;;;66.20;25.40;;;;;;;11.86;71.63;96952.84;5051592;28;20189;-67
2021/10/16 04:39:42;;;;;;;62.80;23.87;;;;;;;11.96;71.34;96948.25;5051854;28;20191;-67
2021/10/16 04:42:11;;;;;;;74.17;24.40;;;;;;;12.00;71.35;96956.63;5051810;28;20302;-67
2021/10/16 04:44:37;;;;;;;77.50;24.10;;;;;;;12.07;71.14;96953.16;5051535;28;20250;-67
2021/10/16 04:47:03;;;;;;;69.20;23.90;;;;;;;12.12;71.12;96952.66;5051625;28;20532;-68
2021/10/16 04:49:29;;;;;;;62.20;24.97;;;;;;;12.17;70.45;96957.41;5051481;28;20430;-67
2021/10/16 04:51:54;;;;;;;57.47;23.23;;;;;;;12.19;70.70;96950.19;5052333;28;20195;-64
2021/10/16 04:54:20;;;;;;;57.70;23.30;;;;;;;12.22;70.54;96950.66;5059035;28;20195;-67
2021/10/16 04:56:45;;;;;;;62.67;23.20;;;;;;;12.31;70.50;96950.63;5052775;28;20183;-67
2021/10/16 04:59:11;;;;;;;59.07;23.60;;;;;;;12.29;70.28;96948.97;5054065;28;20274;-70
2021/10/16 05:01:36;;;;;;;62.77;25.30;;;;;;;12.25;70.61;96952.13;5040400;28;20724;-67
2021/10/16 05:04:02;;;;;;;59.90;24.63;;;;;;;12.30;70.02;96952.44;5051153;28;20276;-68
2021/10/16 05:06:32;;;;;;;56.77;24.03;;;;;;;12.37;70.15;96953.41;5050561;28;20191;-66
2021/10/16 05:08:58;;;;;;;55.77;24.73;;;;;;;12.27;69.67;96940.47;5050129;28;20202;-67
2021/10/16 05:11:23;;;;;;;58.10;24.20;;;;;;;12.36;69.81;96945.69;5046684;28;20937;-66
2021/10/16 05:13:49;;;;;;;55.53;25.37;;;;;;;12.40;69.89;96945.19;5052066;28;20202;-66
2021/10/16 05:16:14;;;;;;;60.17;24.53;;;;;;;12.46;69.59;96945.50;5052419;28;20257;-67
2021/10/16 05:18:40;;;;;;;50.80;24.50;;;;;;;12.46;69.42;96945.50;5051475;28;20175;-67
2021/10/16 05:21:05;;;;;;;56.97;24.33;;;;;;;12.38;69.53;96946.34;5052729;28;20197;-67
2021/10/16 05:23:31;;;;;;;55.90;24.83;;;;;;;12.50;69.18;96954.66;5057587;28;20218;-66
2021/10/16 05:25:56;;;;;;;61.13;27.13;;;;;;;12.53;68.90;96952.53;5051667;28;20285;-67
2021/10/16 05:28:22;;;;;;;56.67;25.47;;;;;;;12.53;69.17;96952.53;5059643;28;20649;-67
2021/10/16 05:30:48;;;;;;;53.60;24.70;;;;;;;12.57;69.05;96953.00;5045025;28;20233;-67
2021/10/16 05:33:13;;;;;;;57.47;25.50;;;;;;;12.56;69.07;96965.31;5059951;28;20167;-67
2021/10/16 05:35:43;;;;;;;55.30;23.73;;;;;;;12.40;69.05;96960.94;5050839;28;20451;-67
2021/10/16 05:38:10;;;;;;;41.63;21.67;;;;;;;12.42;69.08;96956.34;5053819;28;20190;-67
2021/10/16 05:40:35;;;;;;;44.70;21.80;;;;;;;12.36;69.00;96967.53;5056506;28;20505;-67
2021/10/16 05:43:01;;;;;;;37.03;19.33;;;;;;;12.42;69.10;96972.13;5049620;28;20418;-67
2021/10/16 05:45:26;;;;;;;45.37;20.13;;;;;;;12.49;68.75;96968.78;5050760;28;20281;-67
2021/10/16 05:47:52;;;;;;;43.53;21.27;;;;;;;12.44;69.03;96967.50;5051075;28;20295;-68
2021/10/16 05:50:17;;;;;;;40.07;20.53;;;;;;;12.47;68.94;96976.84;5058681;28;20187;-66
2021/10/16 05:52:43;;;;;;;46.90;22.80;;;;;;;12.53;68.47;96980.63;5059404;28;20179;-68
2021/10/16 05:55:09;;;;;;;54.53;23.00;;;;;;;12.59;68.36;96982.56;5050685;28;20203;-68
2021/10/16 05:57:34;;;;;;;50.50;23.47;;;;;;;12.59;68.19;96972.88;5048597;28;20569;-67
2021/10/16 06:00:00;;;;;;;43.73;21.83;;;;;;;12.59;68.51;96977.31;5047165;28;20183;-68
2021/10/16 06:02:26;;;;;;;44.20;21.23;;;;;;;12.53;68.30;96977.97;5050671;28;20235;-67
2021/10/16 06:04:51;;;;;;;43.50;21.13;;;;;;;12.45;68.31;96986.72;5050017;28;20268;-67
2021/10/16 06:07:17;;;;;;;34.83;16.00;;;;;;;12.28;68.08;96988.56;5050357;28;20565;-67
2021/10/16 06:09:43;;;;;;;26.23;16.03;;;;;;;12.21;68.46;96985.81;5049026;28;20437;-66
2021/10/16 06:12:08;;;;;;;21.87;14.63;;;;;;;12.27;68.10;96989.56;5070849;28;20182;-66
2021/10/16 06:14:34;;;;;;;29.20;14.83;;;;;;;12.25;67.44;96988.91;5071105;28;20205;-66
2021/10/16 06:16:59;;;;;;;22.40;13.80;;;;;;;12.24;67.43;97003.03;5057464;28;20237;-67
2021/10/16 06:19:25;;;;;;;24.00;13.30;;;;;;;12.22;67.29;96999.78;5069162;28;20185;-66
2021/10/16 06:21:50;;;;;;;26.00;13.63;;;;;;;12.19;66.83;96994.84;5064610;28;20320;-66
2021/10/16 06:24:16;;;;;;;28.07;14.07;;;;;;;12.20;66.97;96991.22;5070976;28;20298;-67
2021/10/16 06:26:41;;;;;;;37.07;16.20;;;;;;;12.26;66.77;96993.19;5070856;28;20300;-67
2021/10/16 06:29:07;;;;;;;38.40;18.57;;;;;;;12.28;66.86;96991.19;5064161;28;20266;-68
2021/10/16 06:31:33;;;;;;;48.17;22.57;;;;;;;12.26;66.80;97004.53;5069634;28;20171;-68
2021/10/16 06:33:58;;;;;;;45.07;21.47;;;;;;;12.33;66.88;96996.78;5078972;28;20221;-66
2021/10/16 06:36:24;;;;;;;51.30;20.70;;;;;;;12.28;66.90;97004.34;5088319;28;20212;-67
2021/10/16 06:38:49;;;;;;;56.23;24.37;;;;;;;12.35;66.91;97002.66;5082091;28;20198;-67
2021/10/16 06:41:15;;;;;;;53.53;21.57;;;;;;;12.43;67.03;97005.28;5088549;28;20174;-66
2021/10/16 06:43:40;;;;;;;49.47;24.37;;;;;;;12.53;66.99;97006.91;5080793;28;20199;-66
2021/10/16 06:46:06;;;;;;;55.13;24.53;;;;;;;12.56;66.64;97012.63;5071482;28;20262;-66
2021/10/16 06:48:31;;;;;;;54.73;24.10;;;;;;;12.52;67.12;97015.78;5079601;28;20178;-67
2021/10/16 06:50:57;;;;;;;53.23;23.60;;;;;;;12.54;66.95;97011.97;5082287;28;20261;-67
2021/10/16 06:53:22;;;;;;;61.47;25.70;;;;;;;12.54;67.06;97019.88;5080407;28;20207;-67
2021/10/16 06:55:48;;;;;;;46.97;22.30;;;;;;;12.62;66.70;97015.59;5081695;28;20622;-66
2021/10/16 06:58:14;;;;;;;43.77;23.07;;;;;;;12.59;66.44;97019.38;5064689;28;20573;-66
2021/10/16 07:00:39;;;;;;;42.77;20.77;;;;;;;12.66;66.58;97020.31;5063392;28;20719;-66
2021/10/16 07:03:07;;;;;;;36.20;20.87;;;;;;;12.70;66.46;97020.81;5059199;28;20257;-66
2021/10/16 07:05:33;;;;;;;44.80;24.00;;;;;;;12.63;66.78;97028.53;5074646;28;20178;-65
2021/10/16 07:07:58;;;;;;;58.13;28.03;;;;;;;12.38;67.35;97025.19;5071946;28;20448;-66
2021/10/16 07:10:24;;;;;;;51.03;24.20;;;;;;;12.50;67.06;97028.25;5061493;28;20421;-66
2021/10/16 07:12:50;;;;;;;46.77;23.70;;;;;;;12.60;66.63;97028.91;5074272;28;20303;-66
2021/10/16 07:15:15;;;;;;;49.93;25.37;;;;;;;12.51;67.13;97025.47;5074686;28;20191;-65
2021/10/16 07:17:41;;;;;;;39.43;23.33;;;;;;;12.52;67.14;97028.91;5065474;28;20250;-66
2021/10/16 07:20:07;;;;;;;54.20;24.00;;;;;;;12.63;66.60;97028.53;5070605;28;20629;-66
2021/10/16 07:22:32;;;;;;;55.30;22.93;;;;;;;12.59;66.68;97032.53;5061064;28;20185;-66
2021/10/16 07:24:58;;;;;;;46.93;23.63;;;;;;;12.56;66.70;97044.19;5065715;28;20979;-64
2021/10/16 07:27:24;;;;;;;53.43;24.57;;;;;;;12.53;67.51;97041.06;5075333;28;20236;-66
2021/10/16 07:29:52;;;;;;;47.37;23.73;;;;;;;12.68;66.75;97041.19;5077174;28;20199;-66
2021/10/16 07:32:18;;;;;;;45.10;21.20;;;;;;;12.62;66.90;97036.63;5065590;28;20505;-66
2021/10/16 07:34:43;;;;;;;35.30;19.60;;;;;;;12.58;66.89;97046.66;5072387;28;20432;-66
2021/10/16 07:37:09;;;;;;;43.07;23.87;;;;;;;12.62;67.08;97047.94;5072136;28;20189;-64
2021/10/16 07:39:34;;;;;;;48.43;25.83;;;;;;;12.72;66.91;97050.38;5051987;28;20182;-66
2021/10/16 07:42:00;;;;;;;40.93;20.97;;;;;;;12.77;66.34;97049.88;5064714;28;20186;-66
2021/10/16 07:44:25;;;;;;;47.40;23.60;;;;;;;12.77;66.34;97050.69;5060846;28;20218;-66
2021/10/16 07:46:51;;;;;;;49.37;26.00;;;;;;;12.75;66.54;97053.47;5072569;28;20466;-65
2021/10/16 07:49:17;;;;;;;46.57;25.80;;;;;;;12.62;66.82;97047.94;5066382;28;20662;-66
2021/10/16 07:51:42;;;;;;;42.50;19.63;;;;;;;12.55;67.03;97052.25;5067069;28;20183;-67
2021/10/16 07:54:08;;;;;;;28.33;17.90;;;;;;;12.52;67.20;97052.56;5072606;28;20212;-66
2021/10/16 07:56:34;;;;;;;27.27;17.80;;;;;;;12.75;66.54;97057.94;5073453;28;20297;-66
2021/10/16 07:58:59;;;;;;;37.97;19.50;;;;;;;12.82;66.38;97065.97;5073008;28;20237;-66
2021/10/16 08:01:25;;;;;;;38.97;20.10;;;;;;;12.92;66.12;97057.88;5073439;28;20505;-67
2021/10/16 08:03:52;;;;;;;39.80;20.40;;;;;;;12.88;66.20;97063.47;5073336;28;20206;-65
2021/10/16 08:06:19;;;;;;;41.47;20.47;;;;;;;12.66;66.88;97057.13;5073665;28;20557;-64
2021/10/16 08:08:45;;;;;;;44.77;23.50;;;;;;;12.73;66.88;97057.28;5057981;28;20459;-65
2021/10/16 08:11:10;;;;;;;43.60;21.73;;;;;;;12.10;68.50;97059.72;5072328;28;20506;-65
2021/10/16 08:13:36;;;;;;;59.30;26.27;;;;;;;11.53;70.88;97069.16;5072912;28;20218;-66
2021/10/16 08:16:01;;;;;;;60.07;24.40;;;;;;;12.27;69.39;97073.66;5072757;28;20192;-65
2021/10/16 08:18:27;;;;;;;65.83;26.60;;;;;;;12.43;68.77;97070.16;5067396;28;20186;-66
2021/10/16 08:20:53;;;;;;;54.17;25.03;;;;;;;12.73;67.83;97065.16;5072728;28;20214;-67
2021/10/16 08:23:19;;;;;;;56.27;26.10;;;;;;;12.85;67.44;97063.81;5065908;28;20178;-67
2021/10/16 08:25:44;;;;;;;63.93;26.53;;;;;;;12.86;66.93;97062.00;5064974;28;20412;-68
2021/10/16 08:28:12;;;;;;;54.70;25.80;;;;;;;12.73;67.60;97065.97;5072414;28;20586;-65
2021/10/16 08:30:40;;;;;;;73.27;29.03;;;;;;;12.61;68.16;97072.59;5072208;28;20675;-66
2021/10/16 08:33:06;;;;;;;66.67;28.93;;;;;;;12.81;67.96;97070.38;5072041;28;20421;-65
2021/10/16 08:35:32;;;;;;;71.93;28.90;;;;;;;12.94;67.20;97077.75;5072436;28;20478;-66
2021/10/16 08:37:57;;;;;;;75.27;30.43;;;;;;;12.91;67.22;97083.34;5069770;28;20544;-65
2021/10/16 08:40:26;;;;;;;80.03;28.83;;;;;;;12.94;67.27;97077.75;5058060;28;20225;-65
2021/10/16 08:42:53;;;;;;;78.23;29.40;;;;;;;13.06;67.13;97080.81;5072230;28;20186;-65
2021/10/16 08:45:18;;;;;;;56.07;24.17;;;;;;;12.91;67.18;97083.34;5072323;28;20452;-65
2021/10/16 08:47:47;;;;;;;46.63;21.37;;;;;;;13.01;67.38;97086.59;5071997;28;20444;-65
2021/10/16 08:50:13;;;;;;;43.00;20.13;;;;;;;13.09;66.60;97085.75;5072155;28;20766;-66
2021/10/16 08:52:39;;;;;;;35.57;18.00;;;;;;;12.85;66.88;97092.75;5072053;28;20432;-67
2021/10/16 08:55:06;;;;;;;34.97;17.30;;;;;;;13.00;66.65;97092.03;5071660;28;20446;-67
2021/10/16 08:57:34;;;;;;;33.60;17.70;;;;;;;13.09;66.11;97085.75;5071363;28;20425;-66
2021/10/16 09:00:35;;;;;;;30.53;17.20;;;;;;;12.84;66.30;97093.72;5072212;28;20892;-66
2021/10/16 09:03:45;;;;;;;26.70;16.93;;;;;;;12.95;66.28;97096.97;5054076;28;20421;-66
2021/10/16 09:06:27;;;;;;;31.57;16.93;;;;;;;12.80;66.24;97096.88;5071200;28;20799;-67
2021/10/16 09:08:57;;;;;;;43.33;21.20;;;;;;;11.60;69.83;97096.41;5055095;28;20866;-65
2021/10/16 09:11:26;;;;;;;38.67;20.97;;;;;;;11.77;70.20;97102.50;5071365;28;20413;-66
2021/10/16 09:13:53;;;;;;;46.73;22.97;;;;;;;12.38;68.38;97104.84;5071172;28;20433;-66
2021/10/16 09:16:40;;;;;;;40.03;21.53;;;;;;;12.69;67.54;97098.88;5066928;28;20422;-66
2021/10/16 09:19:14;;;;;;;43.00;22.80;;;;;;;12.50;67.31;97096.59;5070035;28;20904;-66
2021/10/16 09:22:01;;;;;;;36.70;20.30;;;;;;;12.27;67.85;97089.41;5065005;28;20421;-66
2021/10/16 09:24:34;;;;;;;39.63;22.20;;;;;;;12.91;66.76;97099.13;5064337;28;21026;-66
2021/10/16 09:27:07;;;;;;;31.00;19.73;;;;;;;13.11;65.39;97098.72;5070948;28;20432;-66
2021/10/16 09:29:35;;;;;;;36.07;20.23;;;;;;;13.18;65.48;97097.06;5071351;28;20499;-65
2021/10/16 09:32:09;;;;;;;40.10;20.50;;;;;;;13.28;65.17;97100.28;5069955;28;20523;-65
2021/10/16 09:34:37;;;;;;;37.30;20.03;;;;;;;13.49;64.38;97093.63;5070691;28;20546;-67
2021/10/16 09:37:04;;;;;;;37.37;22.40;;;;;;;13.08;64.84;97104.34;5070779;28;20436;-65
2021/10/16 09:39:31;;;;;;;32.40;20.30;;;;;;;13.49;64.30;97094.47;5054517;28;20805;-67
2021/10/16 09:41:57;;;;;;;45.10;22.27;;;;;;;12.42;67.08;97100.06;5071243;28;20483;-67
2021/10/16 09:44:28;;;;;;;40.47;21.13;;;;;;;12.10;68.20;97107.00;5070908;28;20555;-65
2021/10/16 09:47:06;;;;;;;35.70;20.50;;;;;;;13.05;65.96;97098.44;5070672;28;20289;-65
2021/10/16 09:49:40;;;;;;;45.13;23.23;;;;;;;12.90;66.20;97106.22;5070725;28;20436;-65
2021/10/16 09:52:09;;;;;;;43.93;26.33;;;;;;;13.40;64.86;97105.19;5062299;28;20421;-66
2021/10/16 09:54:35;;;;;;;50.20;25.03;;;;;;;13.73;63.64;97099.75;5070783;28;20439;-66
2021/10/16 09:57:06;;;;;;;44.97;25.07;;;;;;;13.80;62.96;97096.22;5071163;28;20420;-66
2021/10/16 09:59:32;;;;;;;48.17;24.57;;;;;;;13.56;63.90;97089.31;5071089;28;20238;-66
2021/10/16 10:01:59;;;;;;;50.80;24.93;;;;;;;13.76;63.67;97088.84;5070647;28;20493;-68
2021/10/16 10:04:25;;;;;;;48.40;24.87;;;;;;;14.14;61.97;97099.44;5069638;28;20460;-66
2021/10/16 10:06:51;;;;;;;57.90;33.47;;;;;;;14.27;61.75;97091.75;5061892;28;20417;-67
2021/10/16 10:09:17;;;;;;;50.10;24.93;;;;;;;14.23;61.94;97087.00;5053494;28;20206;-66
2021/10/16 10:11:47;;;;;;;48.47;26.13;;;;;;;14.54;61.12;97089.53;5071399;28;20561;-67
2021/10/16 10:14:15;;;;;;;45.03;25.30;;;;;;;14.46;60.77;97089.63;5070965;28;20194;-66
2021/10/16 10:16:41;;;;;;;47.33;26.37;;;;;;;14.27;61.23;97089.09;5064901;28;20433;-66
2021/10/16 10:19:07;;;;;;;43.67;24.63;;;;;;;14.64;60.80;97089.25;5068617;28;20425;-66
2021/10/16 10:21:35;;;;;;;46.50;24.83;;;;;;;14.44;61.31;97094.25;5064311;28;20806;-65
2021/10/16 10:24:06;;;;;;;43.03;24.07;;;;;;;14.27;61.70;97089.09;5059670;28;20460;-65
2021/10/16 10:26:35;;;;;;;51.23;24.63;;;;;;;14.01;62.97;97088.66;5069973;28;20409;-66
2021/10/16 10:29:08;;;;;;;44.37;24.57;;;;;;;14.52;61.06;97086.25;5068821;28;20439;-66
2021/10/16 10:31:58;;;;;;;30.90;19.33;;;;;;;14.70;61.16;97082.47;5065077;28;20932;-67
2021/10/16 10:34:29;;;;;;;35.37;20.17;;;;;;;14.96;60.13;97082.00;5056632;28;20520;-66
2021/10/16 10:37:01;;;;;;;33.20;20.53;;;;;;;15.19;58.96;97081.06;5070731;28;20523;-67
2021/10/16 10:39:33;;;;;;;39.47;23.63;;;;;;;15.39;58.42;97073.38;5054844;28;20784;-65
2021/10/16 10:42:11;;;;;;;32.57;20.10;;;;;;;15.27;58.30;97074.88;5070542;28;20428;-66
2021/10/16 10:44:49;;;;;;;35.47;22.13;;;;;;;15.79;56.96;97081.72;5070868;28;20800;-66
2021/10/16 10:47:32;;;;;;;32.90;19.83;;;;;;;16.26;55.64;97076.03;5054595;28;20509;-67
2021/10/16 10:50:09;;;;;;;32.70;20.40;;;;;;;16.05;55.90;97072.44;5070698;28;20926;-67
2021/10/16 10:52:56;;;;;;;38.30;23.63;;;;;;;15.89;55.77;97076.16;5071120;28;20452;-66
2021/10/16 10:55:22;;;;;;;35.63;23.57;;;;;;;16.28;54.50;97071.38;5058744;28;20432;-66
2021/10/16 10:57:57;;;;;;;34.33;21.07;;;;;;;16.34;54.67;97073.28;5070765;28;20741;-66
2021/10/16 11:00:29;;;;;;;32.73;19.87;;;;;;;16.21;54.99;97068.69;5056529;28;20861;-66
2021/10/16 11:02:54;;;;;;;32.00;19.87;;;;;;;16.40;54.42;97064.56;5071095;28;20424;-67
2021/10/16 11:05:40;;;;;;;32.53;21.37;;;;;;;16.57;53.64;97065.06;5074035;28;20490;-66
2021/10/16 11:08:14;;;;;;;30.83;22.17;;;;;;;16.58;53.74;97061.41;5069506;28;20206;-65
2021/10/16 11:10:41;;;;;;;34.10;22.13;;;;;;;16.50;53.83;97063.41;5064422;28;20425;-66
2021/10/16 11:13:11;;;;;;;31.70;20.77;;;;;;;16.62;53.67;97053.94;5073349;28;20424;-66
2021/10/16 11:15:40;;;;;;;32.70;23.70;;;;;;;16.92;52.51;97051.03;5073523;28;20469;-66
2021/10/16 11:18:14;;;;;;;30.40;19.40;;;;;;;16.55;53.32;97047.75;5057643;28;20990;-66